Time;durP1;ratioP1;P1;durP2;ratioP2;P2;SDS_P1;SDS_P2;PMS_P1;PMS_P2;Temp;Humidity;BMP_temperature;BMP_pressure;BME280_temperature;BME280_humidity;BME280_pressure;Samples;Min_cycle;Max_cycle;Signal;HPM_P1;HPM_P2
2024/03/09 00:00:39;;;;;;;5.97;3.00;;;6.90;99.90;;;;;;4989134;28;20030;-70
2024/03/09 00:03:07;;;;;;;7.82;3.38;;;6.90;99.90;;;;;;5001483;28;20505;-70
2024/03/09 00:05:34;;;;;;;20.55;7.22;;;6.90;99.90;;;;;;5006209;28;20490;-70
2024/03/09 00:08:04;;;;;;;11.57;5.55;;;6.90;99.90;;;;;;4990587;28;20689;-70
2024/03/09 00:10:30;;;;;;;11.13;5.20;;;6.90;99.90;;;;;;5003176;28;20030;-70
2024/03/09 00:12:58;;;;;;;7.72;3.58;;;6.90;99.90;;;;;;5015066;28;20041;-70
2024/03/09 00:15:25;;;;;;;5.43;2.85;;;6.90;99.90;;;;;;4983911;28;20027;-71
2024/03/09 00:17:53;;;;;;;6.18;3.25;;;6.90;99.90;;;;;;5015242;28;20475;-70
2024/03/09 00:20:25;;;;;;;6.45;2.67;;;6.80;99.90;;;;;;4991324;28;20109;-71
2024/03/09 00:22:52;;;;;;;5.22;2.22;;;6.80;99.90;;;;;;4999416;28;20030;-71
2024/03/09 00:25:22;;;;;;;6.95;2.95;;;6.80;99.90;;;;;;4983239;28;20483;-71
2024/03/09 00:27:49;;;;;;;13.98;3.03;;;6.80;99.90;;;;;;5008066;28;20113;-71
2024/03/09 00:30:22;;;;;;;8.23;2.70;;;6.80;99.90;;;;;;4982361;28;20483;-71
2024/03/09 00:32:55;;;;;;;7.10;3.53;;;6.70;99.90;;;;;;4991736;28;20490;-71
2024/03/09 00:35:27;;;;;;;6.32;3.10;;;6.70;99.90;;;;;;5018847;28;20069;-71
2024/03/09 00:37:53;;;;;;;16.98;3.80;;;6.80;99.90;;;;;;5014559;28;20054;-71
2024/03/09 00:40:19;;;;;;;5.00;2.85;;;6.80;99.90;;;;;;5010335;28;20378;-71
2024/03/09 00:42:45;;;;;;;6.47;3.03;;;6.80;99.90;;;;;;4991951;28;20034;-71
2024/03/09 00:45:13;;;;;;;10.60;3.33;;;6.90;99.90;;;;;;4991724;28;20030;-72
2024/03/09 00:47:40;;;;;;;7.80;2.60;;;6.90;99.90;;;;;;5002068;28;20085;-71
2024/03/09 00:50:09;;;;;;;8.73;3.75;;;6.90;99.90;;;;;;4969353;28;20026;-71
2024/03/09 00:52:37;;;;;;;9.13;3.78;;;7.00;99.90;;;;;;4989807;28;20403;-71
2024/03/09 00:55:10;;;;;;;6.22;3.03;;;7.00;99.90;;;;;;4996350;28;20073;-71
2024/03/09 00:57:44;;;;;;;5.13;2.47;;;6.90;99.90;;;;;;5011236;28;20034;-71
2024/03/09 01:00:11;;;;;;;5.35;2.70;;;6.90;99.90;;;;;;5009748;28;20042;-71
2024/03/09 01:02:42;;;;;;;9.73;3.13;;;7.00;99.90;;;;;;5005928;28;20387;-71
2024/03/09 01:05:09;;;;;;;4.38;2.92;;;7.00;99.90;;;;;;5017647;28;20085;-71
2024/03/09 01:07:37;;;;;;;6.82;2.85;;;7.00;99.90;;;;;;5014403;28;20038;-70
2024/03/09 01:10:06;;;;;;;8.63;3.05;;;7.00;99.90;;;;;;5020806;28;20073;-71
2024/03/09 01:12:36;;;;;;;6.85;3.42;;;6.90;99.90;;;;;;5014215;28;20041;-71
2024/03/09 01:15:07;;;;;;;15.30;3.55;;;6.90;99.90;;;;;;5019110;28;20518;-71
2024/03/09 01:17:35;;;;;;;;;;;6.80;99.90;;;;;;4994750;28;20141;-71
2024/03/09 01:20:06;;;;;;;7.15;3.17;;;6.80;99.90;;;;;;5017455;28;19960;-71
2024/03/09 01:22:32;;;;;;;7.10;2.75;;;6.80;99.90;;;;;;4990775;28;20118;-71
2024/03/09 01:24:58;;;;;;;11.52;3.22;;;6.80;99.90;;;;;;4986723;28;20031;-71
2024/03/09 01:27:26;;;;;;;9.05;3.38;;;6.80;99.90;;;;;;5014349;28;20054;-72
2024/03/09 01:29:54;;;;;;;6.07;3.08;;;6.70;99.90;;;;;;5018566;28;20105;-71
2024/03/09 01:32:22;;;;;;;6.30;3.13;;;6.70;99.90;;;;;;5008858;28;20601;-70
2024/03/09 01:34:48;;;;;;;6.35;3.20;;;6.60;99.90;;;;;;4985399;28;20109;-70
2024/03/09 01:37:19;;;;;;;7.82;3.97;;;6.70;99.90;;;;;;5008803;28;20030;-70
2024/03/09 01:39:48;;;;;;;7.13;3.10;;;6.60;99.90;;;;;;5016603;28;20757;-70
2024/03/09 01:42:18;;;;;;;12.18;3.90;;;6.60;99.90;;;;;;5012588;28;20045;-70
2024/03/09 01:44:48;;;;;;;8.93;3.50;;;6.50;99.90;;;;;;4994313;28;20145;-71
2024/03/09 01:47:21;;;;;;;7.95;3.38;;;6.50;99.90;;;;;;4997500;28;20714;-70
2024/03/09 01:49:47;;;;;;;7.65;3.40;;;6.40;99.90;;;;;;4992277;28;20041;-70
2024/03/09 01:52:14;;;;;;;9.25;3.80;;;6.50;99.90;;;;;;4993564;28;20031;-70
2024/03/09 01:54:42;;;;;;;6.72;3.05;;;6.40;99.90;;;;;;4992958;28;20507;-71
2024/03/09 01:57:08;;;;;;;11.75;3.55;;;6.50;99.90;;;;;;4979309;28;20023;-71
2024/03/09 01:59:35;;;;;;;12.60;2.45;;;6.40;99.90;;;;;;4991970;28;20022;-71
2024/03/09 02:02:02;;;;;;;9.15;3.60;;;6.40;99.90;;;;;;5002784;28;20414;-71
2024/03/09 02:04:30;;;;;;;11.05;3.35;;;6.40;99.90;;;;;;5018526;28;20475;-71
2024/03/09 02:06:56;;;;;;;8.32;3.40;;;6.20;99.90;;;;;;5003181;28;20537;-71
2024/03/09 02:09:25;;;;;;;6.85;3.42;;;6.10;99.90;;;;;;5002202;28;20030;-71
2024/03/09 02:11:51;;;;;;;9.40;3.72;;;6.20;99.90;;;;;;4973464;28;20026;-71
2024/03/09 02:14:18;;;;;;;9.30;3.28;;;6.20;99.90;;;;;;4993461;28;20034;-71
2024/03/09 02:16:43;;;;;;;8.13;4.20;;;6.20;99.90;;;;;;4986164;28;20030;-71
2024/03/09 02:19:13;;;;;;;6.13;3.65;;;6.20;99.90;;;;;;4992597;28;20383;-71
2024/03/09 02:21:42;;;;;;;13.65;3.03;;;6.20;99.90;;;;;;5007655;28;20029;-71
2024/03/09 02:24:09;;;;;;;7.88;3.17;;;6.10;99.90;;;;;;5015855;28;20387;-71
2024/03/09 02:26:38;;;;;;;6.93;2.47;;;6.10;99.90;;;;;;4992723;28;20031;-71
2024/03/09 02:29:05;;;;;;;9.63;3.40;;;6.10;99.90;;;;;;5002928;28;20483;-71
2024/03/09 02:31:31;;;;;;;6.63;3.28;;;6.10;99.90;;;;;;5004517;28;20034;-71
2024/03/09 02:33:57;;;;;;;8.02;3.30;;;6.10;99.90;;;;;;5000080;28;20049;-71
2024/03/09 02:36:24;;;;;;;8.32;3.17;;;6.20;99.90;;;;;;5006422;28;20479;-71
2024/03/09 02:38:51;;;;;;;5.80;2.53;;;6.20;99.90;;;;;;4984710;28;20098;-71
2024/03/09 02:41:17;;;;;;;5.93;3.30;;;6.20;99.90;;;;;;5005256;28;20054;-71
2024/03/09 02:43:43;;;;;;;10.95;3.05;;;6.20;99.90;;;;;;5015678;28;20395;-71
2024/03/09 02:46:10;;;;;;;10.20;4.05;;;6.20;99.90;;;;;;5004463;28;20042;-71
2024/03/09 02:48:36;;;;;;;8.50;3.72;;;6.30;99.90;;;;;;5008529;28;20034;-72
2024/03/09 02:51:02;;;;;;;9.80;4.15;;;6.20;99.90;;;;;;4992518;28;20387;-71
2024/03/09 02:53:28;;;;;;;5.63;2.90;;;6.30;99.90;;;;;;4992733;28;20029;-71
2024/03/09 02:55:54;;;;;;;6.00;3.97;;;6.30;99.90;;;;;;4987365;28;20069;-69
2024/03/09 02:58:21;;;;;;;6.68;2.97;;;6.30;99.90;;;;;;4980783;28;20027;-70
2024/03/09 03:00:47;;;;;;;8.38;4.35;;;6.30;99.90;;;;;;4979465;28;20387;-70
2024/03/09 03:05:56;;;;;;;7.50;3.80;;;6.30;99.90;;;;;;4998876;28;20394;-70
2024/03/09 03:08:23;;;;;;;42.83;12.80;;;6.30;99.90;;;;;;5015563;28;20030;-69
2024/03/09 03:10:50;;;;;;;29.40;10.88;;;6.40;99.90;;;;;;5004138;28;20097;-70
2024/03/09 03:13:15;;;;;;;13.27;7.25;;;6.40;99.90;;;;;;4992429;28;20521;-70
2024/03/09 03:15:41;;;;;;;8.23;4.20;;;6.40;99.90;;;;;;5001084;28;20042;-71
2024/03/09 03:18:08;;;;;;;7.85;3.70;;;6.50;99.90;;;;;;4992366;28;20113;-70
2024/03/09 03:20:35;;;;;;;6.43;3.40;;;6.40;99.90;;;;;;4999589;28;20038;-70
2024/03/09 03:23:03;;;;;;;9.23;4.10;;;6.40;99.90;;;;;;5017468;28;20022;-70
2024/03/09 03:25:29;;;;;;;9.88;4.47;;;6.30;99.90;;;;;;4999431;28;20030;-70
2024/03/09 03:27:56;;;;;;;8.18;3.92;;;6.40;99.90;;;;;;5017021;28;20065;-69
2024/03/09 03:30:22;;;;;;;11.07;3.88;;;6.40;99.90;;;;;;4991025;28;20430;-70
2024/03/09 03:32:50;;;;;;;8.65;3.60;;;6.40;99.90;;;;;;5015584;28;20022;-69
2024/03/09 03:35:17;;;;;;;9.13;4.40;;;6.30;99.90;;;;;;5006787;28;20379;-70
2024/03/09 03:37:46;;;;;;;5.47;3.22;;;6.20;99.90;;;;;;5022659;28;20029;-70
2024/03/09 03:40:15;;;;;;;9.20;3.10;;;6.10;99.90;;;;;;5002298;28;20395;-70
2024/03/09 03:42:41;;;;;;;6.32;4.20;;;6.00;99.90;;;;;;5021763;28;20030;-71
2024/03/09 03:45:11;;;;;;;10.15;4.03;;;6.10;99.90;;;;;;4983536;28;20053;-70
2024/03/09 03:47:38;;;;;;;10.63;4.03;;;6.10;99.90;;;;;;5021225;28;20030;-70
2024/03/09 03:50:08;;;;;;;6.93;3.10;;;6.10;99.90;;;;;;4984281;28;20046;-70
2024/03/09 03:52:38;;;;;;;7.30;3.58;;;6.10;99.90;;;;;;5021569;28;20030;-70
2024/03/09 03:55:11;;;;;;;9.38;4.53;;;6.10;99.90;;;;;;4998921;28;20562;-70
2024/03/09 03:57:39;;;;;;;10.07;4.10;;;6.10;99.90;;;;;;4991570;28;20034;-70
2024/03/09 04:00:09;;;;;;;8.40;4.40;;;6.00;99.90;;;;;;5001465;28;20064;-70
2024/03/09 04:02:36;;;;;;;9.23;3.88;;;5.90;99.90;;;;;;4992928;28;20026;-70
2024/03/09 04:05:07;;;;;;;17.77;3.70;;;5.90;99.90;;;;;;4985303;28;20037;-70
2024/03/09 04:07:33;;;;;;;10.68;3.50;;;5.90;99.90;;;;;;5006886;28;20034;-71
2024/03/09 04:10:12;;;;;;;6.90;4.07;;;5.90;99.90;;;;;;4984295;28;20026;-70
2024/03/09 04:12:40;;;;;;;9.73;3.85;;;5.90;99.90;;;;;;4990198;28;20041;-70
2024/03/09 04:15:09;;;;;;;11.07;4.70;;;5.90;99.90;;;;;;5002522;28;20735;-71
2024/03/09 04:17:36;;;;;;;8.25;3.95;;;5.90;99.90;;;;;;5006554;28;20031;-70
2024/03/09 04:20:05;;;;;;;9.50;4.68;;;5.90;99.90;;;;;;4984466;28;20038;-70
2024/03/09 04:22:35;;;;;;;11.95;4.32;;;5.90;99.90;;;;;;4991626;28;20053;-70
2024/03/09 04:25:01;;;;;;;13.38;4.82;;;5.90;99.90;;;;;;5000289;28;20100;-70
2024/03/09 04:27:31;;;;;;;11.30;4.80;;;5.90;99.90;;;;;;4990417;28;20077;-70
2024/03/09 04:29:57;;;;;;;10.13;4.55;;;5.90;99.90;;;;;;4983966;28;20064;-70
2024/03/09 04:32:27;;;;;;;6.63;3.85;;;5.90;99.90;;;;;;5011198;28;20030;-70
2024/03/09 04:34:53;;;;;;;11.55;4.88;;;5.90;99.90;;;;;;4999106;28;20034;-70
2024/03/09 04:37:26;;;;;;;13.10;4.75;;;5.80;99.90;;;;;;4990967;28;20031;-71
2024/03/09 04:39:55;;;;;;;10.15;5.60;;;5.70;99.90;;;;;;4990734;28;20030;-70
2024/03/09 04:42:25;;;;;;;10.95;4.45;;;5.60;99.90;;;;;;5012352;28;20022;-71
2024/03/09 04:44:51;;;;;;;13.05;4.47;;;5.50;99.90;;;;;;4995235;28;20040;-70
2024/03/09 04:47:22;;;;;;;10.38;4.32;;;5.40;99.90;;;;;;4987918;28;20062;-70
2024/03/09 04:49:48;;;;;;;18.10;5.17;;;5.30;99.90;;;;;;4974806;28;20602;-71
2024/03/09 04:52:15;;;;;;;9.63;4.30;;;5.30;99.90;;;;;;4989641;28;20308;-71
2024/03/09 04:54:43;;;;;;;9.55;3.97;;;5.30;99.90;;;;;;4988824;28;20031;-70
2024/03/09 04:57:15;;;;;;;10.80;4.10;;;5.30;99.90;;;;;;5027852;28;20106;-70
2024/03/09 04:59:42;;;;;;;11.65;4.35;;;5.30;99.90;;;;;;5012406;28;20065;-70
2024/03/09 05:02:08;;;;;;;9.13;3.90;;;5.40;99.90;;;;;;5023288;28;20038;-70
2024/03/09 05:04:34;;;;;;;11.38;5.60;;;5.40;99.90;;;;;;4985929;28;20081;-70
2024/03/09 05:07:03;;;;;;;9.95;4.47;;;5.40;99.90;;;;;;4988872;28;20153;-70
2024/03/09 05:09:29;;;;;;;12.95;5.10;;;5.40;99.90;;;;;;4987045;28;20039;-70
2024/03/09 05:11:54;;;;;;;12.70;4.10;;;5.50;99.90;;;;;;4995286;28;20057;-70
2024/03/09 05:14:21;;;;;;;14.57;6.78;;;5.50;99.90;;;;;;5003330;28;20126;-70
2024/03/09 05:16:47;;;;;;;11.55;4.53;;;5.30;99.90;;;;;;5017653;28;20118;-70
2024/03/09 05:19:13;;;;;;;12.27;4.78;;;5.30;99.90;;;;;;4988384;28;20039;-70
2024/03/09 05:21:39;;;;;;;16.30;4.63;;;5.30;99.90;;;;;;5000423;28;20061;-70
2024/03/09 05:24:05;;;;;;;12.45;5.03;;;5.30;99.90;;;;;;4989535;28;20047;-70
2024/03/09 05:26:34;;;;;;;11.52;4.63;;;5.30;99.90;;;;;;4998223;28;20031;-70
2024/03/09 05:29:00;;;;;;;8.40;5.10;;;5.30;99.90;;;;;;4982958;28;20089;-70
2024/03/09 05:31:27;;;;;;;9.52;4.70;;;5.30;99.90;;;;;;4991287;28;20041;-70
2024/03/09 05:33:53;;;;;;;9.10;4.30;;;5.30;99.90;;;;;;5013278;28;20057;-70
2024/03/09 05:36:20;;;;;;;8.93;4.03;;;5.40;99.90;;;;;;4982443;28;20590;-70
2024/03/09 05:38:49;;;;;;;15.32;5.70;;;5.40;99.90;;;;;;5001321;28;20196;-70
2024/03/09 05:41:16;;;;;;;8.00;4.55;;;5.40;99.90;;;;;;4993411;28;20093;-69
2024/03/09 05:43:49;;;;;;;9.38;4.22;;;5.50;99.90;;;;;;5008879;28;20038;-70
2024/03/09 05:46:16;;;;;;;6.60;3.90;;;5.50;99.90;;;;;;5002867;28;20045;-69
2024/03/09 05:48:45;;;;;;;13.05;5.57;;;5.50;99.90;;;;;;4994062;28;20498;-69
2024/03/09 05:51:14;;;;;;;10.05;5.40;;;5.60;99.90;;;;;;4998030;28;20034;-70
2024/03/09 05:53:41;;;;;;;11.77;4.78;;;5.60;99.90;;;;;;4994201;28;20030;-69
2024/03/09 05:56:11;;;;;;;13.60;5.50;;;5.60;99.90;;;;;;5017261;28;20116;-69
2024/03/09 05:58:38;;;;;;;13.93;6.13;;;5.60;99.90;;;;;;4992481;28;20030;-70
2024/03/09 06:01:04;;;;;;;10.73;5.50;;;5.60;99.90;;;;;;5007998;28;20038;-70
2024/03/09 06:03:30;;;;;;;7.72;4.40;;;5.60;99.90;;;;;;4996074;28;20164;-73
2024/03/09 06:05:57;;;;;;;10.00;4.43;;;5.70;99.90;;;;;;4987153;28;20029;-72
2024/03/09 06:08:23;;;;;;;15.77;5.05;;;5.70;99.90;;;;;;4981842;28;20087;-70
2024/03/09 06:10:49;;;;;;;23.90;3.47;;;5.70;99.90;;;;;;4973506;28;20034;-70
2024/03/09 06:13:20;;;;;;;11.90;5.90;;;5.80;99.90;;;;;;4993959;28;20111;-71
2024/03/09 06:15:47;;;;;;;9.88;4.55;;;5.70;99.90;;;;;;4986189;28;20018;-70
2024/03/09 06:18:16;;;;;;;9.23;4.28;;;5.70;99.90;;;;;;5012090;28;20038;-69
2024/03/09 06:20:46;;;;;;;11.73;5.93;;;5.50;99.90;;;;;;4990362;28;20122;-72
2024/03/09 06:23:14;;;;;;;13.95;4.63;;;5.60;99.90;;;;;;4993154;28;20037;-69
2024/03/09 06:25:40;;;;;;;11.00;5.10;;;5.60;99.90;;;;;;4992542;28;20333;-69
2024/03/09 06:28:08;;;;;;;16.45;5.38;;;5.60;99.90;;;;;;4997299;28;20066;-68
2024/03/09 06:30:36;;;;;;;15.30;5.80;;;5.60;99.90;;;;;;5008027;28;20037;-68
2024/03/09 06:33:02;;;;;;;11.35;5.97;;;5.60;99.90;;;;;;5008199;28;20026;-69
2024/03/09 06:35:28;;;;;;;11.32;4.93;;;5.60;99.90;;;;;;5018386;28;20100;-70
2024/03/09 06:38:08;;;;;;;15.30;4.97;;;5.70;99.90;;;;;;4989246;28;20030;-68
2024/03/09 06:40:41;;;;;;;15.00;5.97;;;5.80;99.90;;;;;;5019126;28;20034;-69
2024/03/09 06:43:11;;;;;;;11.73;4.68;;;5.80;99.90;;;;;;4984074;28;20035;-70
2024/03/09 06:45:39;;;;;;;13.63;6.32;;;5.90;99.90;;;;;;4990836;28;20054;-69
2024/03/09 06:48:06;;;;;;;8.30;4.28;;;6.00;99.90;;;;;;4988079;28;20057;-69
2024/03/09 06:50:35;;;;;;;8.30;4.60;;;6.00;99.90;;;;;;5014066;28;20475;-70
2024/03/09 06:53:01;;;;;;;12.02;4.57;;;6.00;99.90;;;;;;4989013;28;20034;-70
2024/03/09 06:55:29;;;;;;;14.40;5.70;;;6.10;99.90;;;;;;5012135;28;20025;-70
2024/03/09 06:58:01;;;;;;;7.85;3.78;;;6.20;99.90;;;;;;5012716;28;20042;-74
2024/03/09 07:00:29;;;;;;;11.93;5.88;;;6.30;99.90;;;;;;4992512;28;20531;-72
2024/03/09 07:03:07;;;;;;;9.52;4.57;;;6.20;99.90;;;;;;5012079;28;20042;-70
2024/03/09 07:05:36;;;;;;;15.50;5.93;;;6.40;99.90;;;;;;5006770;28;20034;-69
2024/03/09 07:08:03;;;;;;;13.57;4.88;;;6.40;99.90;;;;;;4994495;28;20112;-69
2024/03/09 07:10:29;;;;;;;10.73;5.35;;;6.20;99.90;;;;;;5018901;28;20034;-70
2024/03/09 07:12:58;;;;;;;18.52;5.75;;;6.20;99.90;;;;;;4988802;28;20029;-69
2024/03/09 07:15:26;;;;;;;10.55;4.72;;;6.30;99.90;;;;;;4996341;28;20030;-70
2024/03/09 07:17:55;;;;;;;10.82;4.95;;;6.40;99.90;;;;;;4990736;28;20026;-69
2024/03/09 07:20:27;;;;;;;16.30;4.72;;;6.50;99.90;;;;;;4992542;28;20088;-69
2024/03/09 07:22:54;;;;;;;14.95;6.45;;;6.50;99.90;;;;;;4991614;28;20023;-69
2024/03/09 07:25:24;;;;;;;13.27;5.53;;;6.60;99.90;;;;;;5006358;28;20034;-69
2024/03/09 07:27:54;;;;;;;9.77;5.45;;;6.70;99.90;;;;;;5002667;28;20031;-70
2024/03/09 07:30:21;;;;;;;21.33;6.43;;;6.80;99.90;;;;;;4986768;28;20089;-68
2024/03/09 07:32:50;;;;;;;10.75;5.07;;;6.80;99.90;;;;;;4990433;28;20505;-69
2024/03/09 07:35:20;;;;;;;13.15;4.85;;;6.80;99.90;;;;;;5008755;28;20038;-69
2024/03/09 07:37:52;;;;;;;10.00;5.13;;;6.80;99.90;;;;;;4988545;28;20030;-68
2024/03/09 07:40:24;;;;;;;15.23;5.15;;;6.60;99.90;;;;;;4991843;28;20045;-68
2024/03/09 07:42:55;;;;;;;17.15;6.05;;;6.70;99.90;;;;;;4992061;28;20371;-68
2024/03/09 07:45:23;;;;;;;12.37;5.97;;;6.50;99.90;;;;;;5015235;28;20035;-69
2024/03/09 07:47:49;;;;;;;29.80;11.00;;;6.60;99.90;;;;;;5006917;28;20034;-69
2024/03/09 07:50:21;;;;;;;10.68;5.68;;;6.70;99.90;;;;;;5019005;28;20108;-68
2024/03/09 07:52:53;;;;;;;14.43;6.43;;;6.70;99.90;;;;;;4982792;28;20506;-67
2024/03/09 07:55:21;;;;;;;10.57;5.70;;;6.60;99.90;;;;;;5018609;28;20150;-69
2024/03/09 07:57:48;;;;;;;25.85;6.75;;;6.80;99.90;;;;;;4991338;28;20038;-67
2024/03/09 08:00:22;;;;;;;14.82;6.05;;;6.90;99.90;;;;;;5015387;28;20031;-68
2024/03/09 08:02:49;;;;;;;13.00;5.43;;;6.90;99.90;;;;;;5020420;28;20030;-68
2024/03/09 08:05:17;;;;;;;13.77;5.38;;;7.00;99.90;;;;;;5017355;28;20030;-67
2024/03/09 08:07:47;;;;;;;20.30;5.30;;;6.80;99.90;;;;;;4993613;28;20089;-67
2024/03/09 08:10:14;;;;;;;12.50;5.50;;;6.90;99.90;;;;;;5009593;28;20026;-68
2024/03/09 08:12:41;;;;;;;15.02;5.90;;;7.00;99.90;;;;;;4989785;28;20383;-68
2024/03/09 08:15:08;;;;;;;13.25;6.43;;;7.00;99.90;;;;;;5016048;28;20443;-68
2024/03/09 08:17:35;;;;;;;11.98;4.93;;;6.90;99.90;;;;;;5006504;28;20493;-68
2024/03/09 08:20:05;;;;;;;18.20;7.32;;;6.90;99.90;;;;;;5020308;28;20033;-70
2024/03/09 08:22:33;;;;;;;13.63;5.77;;;7.00;99.90;;;;;;4994451;28;20757;-69
2024/03/09 08:25:06;;;;;;;9.52;4.30;;;7.10;99.90;;;;;;5010416;28;20757;-68
2024/03/09 08:27:37;;;;;;;15.27;6.35;;;7.10;99.90;;;;;;4994891;28;20049;-68
2024/03/09 08:30:05;;;;;;;9.82;4.30;;;7.10;99.90;;;;;;4995808;28;20042;-68
2024/03/09 08:32:32;;;;;;;11.43;5.43;;;7.20;99.90;;;;;;4995069;28;20035;-68
2024/03/09 08:34:58;;;;;;;15.25;5.13;;;7.20;99.90;;;;;;5019583;28;20113;-68
2024/03/09 08:37:25;;;;;;;12.55;5.78;;;7.30;99.90;;;;;;4995004;28;20105;-68
2024/03/09 08:39:52;;;;;;;12.48;5.00;;;7.30;99.90;;;;;;4987966;28;20018;-68
2024/03/09 08:42:19;;;;;;;13.90;4.97;;;7.40;99.90;;;;;;4995351;28;20041;-67
2024/03/09 08:44:45;;;;;;;11.98;5.60;;;7.40;99.90;;;;;;5025224;28;20026;-68
2024/03/09 08:47:11;;;;;;;11.82;4.40;;;7.50;99.90;;;;;;4995502;28;20533;-67
2024/03/09 08:49:39;;;;;;;8.48;4.75;;;7.40;99.90;;;;;;5015895;28;20072;-71
2024/03/09 08:52:05;;;;;;;14.48;4.95;;;7.60;99.90;;;;;;4995150;28;20494;-68
2024/03/09 08:54:33;;;;;;;13.68;5.88;;;7.60;99.90;;;;;;4993186;28;20034;-68
2024/03/09 08:57:00;;;;;;;11.05;5.05;;;7.70;99.90;;;;;;4995558;28;20025;-68
2024/03/09 08:59:26;;;;;;;15.40;6.95;;;7.80;99.90;;;;;;4994084;28;20407;-68
2024/03/09 09:01:52;;;;;;;15.02;6.93;;;8.00;99.90;;;;;;4987746;28;20018;-68
2024/03/09 09:04:18;;;;;;;15.02;5.38;;;8.00;99.90;;;;;;5020843;28;20042;-68
2024/03/09 09:06:45;;;;;;;12.77;5.45;;;8.10;99.90;;;;;;4995148;28;20125;-68
2024/03/09 09:09:24;;;;;;;9.88;4.82;;;8.40;99.90;;;;;;4993984;28;20141;-68
2024/03/09 09:11:50;;;;;;;17.75;6.95;;;8.40;99.90;;;;;;4994396;28;20068;-68
2024/03/09 09:14:15;;;;;;;12.70;5.95;;;8.60;99.90;;;;;;4994161;28;20121;-68
2024/03/09 09:16:41;;;;;;;14.13;5.95;;;8.50;99.90;;;;;;5002841;28;20116;-68
2024/03/09 09:19:07;;;;;;;11.93;6.22;;;8.60;99.90;;;;;;4994150;28;20081;-68
2024/03/09 09:21:34;;;;;;;14.82;5.70;;;8.60;99.90;;;;;;4994904;28;20368;-68
2024/03/09 09:24:02;;;;;;;14.18;5.32;;;8.70;99.90;;;;;;4993592;28;20033;-68
2024/03/09 09:26:28;;;;;;;15.98;5.03;;;8.80;99.90;;;;;;4994542;28;20034;-70
2024/03/09 09:28:54;;;;;;;17.23;7.10;;;9.00;99.90;;;;;;4992306;28;20113;-68
2024/03/09 09:31:20;;;;;;;10.20;4.88;;;8.90;99.90;;;;;;5018109;28;20033;-68
2024/03/09 09:33:46;;;;;;;15.30;5.13;;;9.00;99.90;;;;;;4993612;28;20038;-68
2024/03/09 09:36:12;;;;;;;19.73;5.43;;;9.00;99.90;;;;;;4994572;28;20026;-68
2024/03/09 09:38:41;;;;;;;10.48;5.18;;;9.20;99.90;;;;;;5014033;28;20033;-68
2024/03/09 09:41:08;;;;;;;12.10;5.45;;;9.40;99.90;;;;;;4988627;28;20053;-69
2024/03/09 09:43:38;;;;;;;15.27;6.32;;;9.50;99.90;;;;;;5008322;28;20045;-68
2024/03/09 09:46:05;;;;;;;16.58;6.72;;;9.50;99.90;;;;;;5019389;28;20022;-68
2024/03/09 09:48:37;;;;;;;12.68;5.60;;;9.70;99.90;;;;;;4992688;28;20034;-68
2024/03/09 09:51:06;;;;;;;11.52;5.78;;;9.90;99.90;;;;;;5009403;28;20034;-68
2024/03/09 09:53:32;;;;;;;11.43;5.60;;;9.80;99.90;;;;;;4992682;28;20074;-68
2024/03/09 09:55:59;;;;;;;14.15;6.50;;;10.00;99.90;;;;;;4993999;28;20045;-68
2024/03/09 09:58:25;;;;;;;13.02;7.10;;;10.00;99.90;;;;;;5019493;28;20522;-68
2024/03/09 10:00:55;;;;;;;11.68;5.28;;;10.20;99.90;;;;;;4986419;28;20022;-68
2024/03/09 10:03:21;;;;;;;14.82;5.55;;;10.50;99.90;;;;;;4993581;28;20042;-69
2024/03/09 10:05:48;;;;;;;10.07;5.50;;;10.70;99.90;;;;;;4993760;28;20029;-68
2024/03/09 10:08:14;;;;;;;12.82;6.15;;;10.80;99.90;;;;;;5017964;28;20121;-67
2024/03/09 10:10:43;;;;;;;15.93;6.13;;;11.20;99.90;;;;;;4985707;28;20109;-67
2024/03/09 10:13:15;;;;;;;13.13;5.50;;;11.40;99.90;;;;;;4992559;28;20034;-68
2024/03/09 10:15:43;;;;;;;13.75;5.10;;;11.30;99.90;;;;;;4996527;28;20379;-68
2024/03/09 10:18:10;;;;;;;10.63;5.93;;;11.60;99.90;;;;;;4993470;28;20479;-68
2024/03/09 10:20:38;;;;;;;15.30;5.65;;;11.80;99.90;;;;;;4993990;28;20030;-68
2024/03/09 10:23:08;;;;;;;13.68;6.32;;;11.50;99.90;;;;;;4993112;28;20088;-68
2024/03/09 10:25:35;;;;;;;14.38;5.78;;;11.80;99.90;;;;;;5022582;28;20165;-67
2024/03/09 10:28:06;;;;;;;14.10;5.80;;;11.40;99.90;;;;;;4999390;28;20446;-67
2024/03/09 10:30:38;;;;;;;14.45;5.45;;;11.70;99.90;;;;;;5008585;28;20038;-68
2024/03/09 10:33:11;;;;;;;12.98;6.22;;;11.90;99.90;;;;;;5016365;28;20073;-67
2024/03/09 10:35:42;;;;;;;12.65;6.03;;;12.30;99.90;;;;;;5008143;28;20121;-67
2024/03/09 10:38:09;;;;;;;9.30;4.80;;;12.50;99.90;;;;;;4991506;28;20030;-68
2024/03/09 10:40:35;;;;;;;11.82;5.68;;;12.70;99.80;;;;;;5019115;28;20026;-68
2024/03/09 10:43:02;;;;;;;15.30;6.05;;;12.40;99.30;;;;;;5015539;28;20041;-68
2024/03/09 10:45:33;;;;;;;13.93;5.35;;;12.40;99.90;;;;;;4993446;28;20050;-67
2024/03/09 10:48:05;;;;;;;14.75;5.90;;;13.00;99.40;;;;;;5008011;28;20030;-67
2024/03/09 10:50:39;;;;;;;12.65;5.72;;;13.30;99.90;;;;;;4992080;28;20379;-68
2024/03/09 10:53:07;;;;;;;10.55;5.13;;;12.40;99.90;;;;;;5006096;28;20100;-67
2024/03/09 10:56:15;;;;;;;16.83;5.57;;;12.90;99.90;;;;;;4990878;28;20491;-67
2024/03/09 10:58:42;;;;;;;18.75;5.63;;;12.30;99.00;;;;;;4978697;28;20102;-68
2024/03/09 11:01:09;;;;;;;15.55;5.82;;;12.90;99.60;;;;;;5002311;28;20034;-68
2024/03/09 11:03:35;;;;;;;15.02;5.80;;;13.60;98.20;;;;;;4986609;28;20130;-69
2024/03/09 11:06:02;;;;;;;12.02;5.18;;;13.50;99.60;;;;;;5009087;28;20374;-69
2024/03/09 11:08:32;;;;;;;9.77;5.03;;;13.50;98.70;;;;;;5001160;28;20030;-68
2024/03/09 11:10:58;;;;;;;11.02;5.03;;;13.80;98.10;;;;;;4992939;28;20030;-68
2024/03/09 11:13:24;;;;;;;11.05;5.45;;;14.40;97.10;;;;;;5001022;28;20046;-69
2024/03/09 11:15:54;;;;;;;10.00;4.78;;;15.30;95.90;;;;;;5007111;28;20033;-68
2024/03/09 11:18:22;;;;;;;16.40;5.50;;;15.40;96.10;;;;;;5002889;28;20034;-68
2024/03/09 11:21:02;;;;;;;12.93;5.70;;;15.60;95.90;;;;;;4992219;28;20030;-69
2024/03/09 11:23:34;;;;;;;12.30;4.75;;;16.00;95.40;;;;;;5009969;28;20546;-68
2024/03/09 11:26:00;;;;;;;15.23;5.75;;;15.90;95.10;;;;;;4991532;28;20046;-68
2024/03/09 11:28:55;;;;;;;16.17;6.38;;;16.80;93.50;;;;;;5011840;28;20022;-70
2024/03/09 11:31:26;;;;;;;12.55;4.93;;;16.70;94.70;;;;;;4991536;28;20396;-68
2024/03/09 11:33:57;;;;;;;12.05;5.18;;;16.30;94.20;;;;;;4985894;28;20035;-69
2024/03/09 11:37:00;;;;;;;11.55;4.30;;;15.40;95.00;;;;;;4992331;28;20046;-70
2024/03/09 11:39:32;;;;;;;10.38;4.15;;;15.60;93.40;;;;;;4999249;28;20069;-71
2024/03/09 11:42:08;;;;;;;20.73;5.60;;;15.70;93.80;;;;;;4990013;28;20022;-71
2024/03/09 11:44:37;;;;;;;9.85;5.15;;;17.60;93.00;;;;;;4985077;28;20069;-69
2024/03/09 11:47:03;;;;;;;10.52;5.03;;;16.50;92.40;;;;;;5016309;28;20037;-70
2024/03/09 11:49:29;;;;;;;14.20;5.75;;;15.80;93.60;;;;;;5000491;28;20042;-71
2024/03/09 11:51:59;;;;;;;13.13;5.90;;;17.20;92.50;;;;;;5015779;28;20084;-71
2024/03/09 11:54:28;;;;;;;10.80;5.25;;;17.60;92.20;;;;;;4985204;28;20355;-70
2024/03/09 11:56:56;;;;;;;12.23;4.93;;;18.50;90.90;;;;;;5007422;28;20120;-70
2024/03/09 11:59:23;;;;;;;10.18;5.10;;;18.20;90.50;;;;;;5000004;28;20042;-69
2024/03/09 12:02:07;;;;;;;11.07;5.45;;;18.10;90.40;;;;;;4994470;28;20113;-70
2024/03/09 12:04:33;;;;;;;22.10;6.72;;;20.10;87.40;;;;;;5004455;28;20042;-70
2024/03/09 12:07:08;;;;;;;13.05;5.15;;;20.30;87.40;;;;;;4993937;28;20076;-70
2024/03/09 12:09:34;;;;;;;12.18;5.10;;;18.90;86.50;;;;;;5004679;28;20073;-70
2024/03/09 12:12:13;;;;;;;10.80;5.07;;;20.40;83.10;;;;;;4991828;28;20058;-69
2024/03/09 12:14:43;;;;;;;9.68;4.70;;;18.10;84.60;;;;;;5005135;28;20041;-69
2024/03/09 12:17:11;;;;;;;10.37;5.17;;;21.00;83.50;;;;;;4991833;28;20023;-69
2024/03/09 12:19:41;;;;;;;9.15;4.75;;;21.30;80.90;;;;;;5006083;28;20049;-69
2024/03/09 12:22:09;;;;;;;12.18;5.10;;;23.70;76.80;;;;;;5015807;28;20395;-70
2024/03/09 12:24:35;;;;;;;11.82;5.43;;;22.50;71.70;;;;;;4984391;28;20031;-70
2024/03/09 12:27:01;;;;;;;11.38;5.07;;;20.80;74.30;;;;;;5008161;28;20029;-70
2024/03/09 12:29:27;;;;;;;11.18;5.05;;;23.10;71.80;;;;;;5003553;28;20401;-70
2024/03/09 12:31:56;;;;;;;9.38;4.90;;;22.80;71.70;;;;;;5008565;28;20085;-70
2024/03/09 12:34:21;;;;;;;11.02;4.60;;;20.30;73.50;;;;;;5002368;28;20741;-70
2024/03/09 12:36:52;;;;;;;12.85;4.68;;;20.50;74.50;;;;;;4986805;28;20033;-70
2024/03/09 12:39:18;;;;;;;10.82;4.43;;;20.30;72.20;;;;;;5003425;28;20031;-70
2024/03/09 12:41:52;;;;;;;9.73;4.88;;;20.40;72.90;;;;;;4991080;28;20029;-70
2024/03/09 12:44:18;;;;;;;11.45;4.95;;;21.60;72.80;;;;;;4986803;28;20034;-70
2024/03/09 12:46:44;;;;;;;22.20;10.48;;;23.30;70.10;;;;;;5008562;28;20030;-71
2024/03/09 12:49:13;;;;;;;10.18;4.80;;;21.50;70.40;;;;;;5004544;28;20042;-70
2024/03/09 12:51:48;;;;;;;7.85;4.35;;;21.20;69.40;;;;;;4990928;28;20030;-70
2024/03/09 12:54:14;;;;;;;13.57;4.63;;;20.50;72.30;;;;;;4988035;28;20027;-71
2024/03/09 12:56:47;;;;;;;12.38;5.32;;;21.70;69.20;;;;;;5005378;28;20025;-70